Maribondo, Brazil
Current Conditions -  °F | °C
As of 6:00 AM on Thursday 23 Oct 2014 (Local Time) from SBMO Reporting Station
Light Rain Light Rain  
Wind Chill: 70°   Ceiling: 7000
Heat Index: 70°   Visibility: 1.8mi
Dew Point: 70°   Wind: 3mph
Humidity: 100%   Direction: 60°ENE
Pressure: NA   Gusts: NA
Location:  9.58°S, 36.31°W
Report Text: SBMO 230900Z 06003KT 3000 -RA BR FEW010 SCT020 BKN070 21/21 Q1016
Loading
Personal Weather Stations






























Interactive Weather Map
Tropical Storm Tracking
New forecast layout! Learn more

10-Day Weather Forecast

Advertisements
Track Severe Weather on mobile